sensor_id;sensor_type;location;lat;lon;timestamp;temperature;humidity
45044;DHT22;30784;48.490;9.688;2022-09-29T00:01:29;9.80;64.00
45044;DHT22;30784;48.490;9.688;2022-09-29T00:03:55;9.80;64.00
45044;DHT22;30784;48.490;9.688;2022-09-29T00:06:21;9.70;64.00
45044;DHT22;30784;48.490;9.688;2022-09-29T00:08:47;9.80;64.10
45044;DHT22;30784;48.490;9.688;2022-09-29T00:11:15;9.80;64.10
45044;DHT22;30784;48.490;9.688;2022-09-29T00:13:42;9.80;64.10
45044;DHT22;30784;48.490;9.688;2022-09-29T00:16:08;9.80;64.20
45044;DHT22;30784;48.490;9.688;2022-09-29T00:18:34;9.80;64.30
45044;DHT22;30784;48.490;9.688;2022-09-29T00:21:06;9.70;64.30
45044;DHT22;30784;48.490;9.688;2022-09-29T00:23:33;9.80;64.40
45044;DHT22;30784;48.490;9.688;2022-09-29T00:28:25;9.80;64.40
45044;DHT22;30784;48.490;9.688;2022-09-29T00:30:51;9.80;64.50
45044;DHT22;30784;48.490;9.688;2022-09-29T00:33:16;9.80;64.50
45044;DHT22;30784;48.490;9.688;2022-09-29T00:35:42;9.80;64.60
45044;DHT22;30784;48.490;9.688;2022-09-29T00:38:07;9.80;64.60
45044;DHT22;30784;48.490;9.688;2022-09-29T00:40:33;9.80;64.60
45044;DHT22;30784;48.490;9.688;2022-09-29T00:42:59;9.90;64.60
45044;DHT22;30784;48.490;9.688;2022-09-29T00:45:25;9.90;64.70
45044;DHT22;30784;48.490;9.688;2022-09-29T00:48:04;9.90;64.70
45044;DHT22;30784;48.490;9.688;2022-09-29T00:50:43;9.90;64.60
45044;DHT22;30784;48.490;9.688;2022-09-29T00:53:11;9.90;64.50
45044;DHT22;30784;48.490;9.688;2022-09-29T00:56:06;9.90;64.70
45044;DHT22;30784;48.490;9.688;2022-09-29T01:01:04;10.00;64.70
45044;DHT22;30784;48.490;9.688;2022-09-29T01:03:37;10.00;64.60
45044;DHT22;30784;48.490;9.688;2022-09-29T01:06:09;10.00;64.60
45044;DHT22;30784;48.490;9.688;2022-09-29T01:08:48;10.00;64.60
45044;DHT22;30784;48.490;9.688;2022-09-29T01:11:18;10.00;64.60
45044;DHT22;30784;48.490;9.688;2022-09-29T01:13:45;10.00;64.60
45044;DHT22;30784;48.490;9.688;2022-09-29T01:16:11;10.00;64.60
45044;DHT22;30784;48.490;9.688;2022-09-29T01:18:37;10.00;64.70
45044;DHT22;30784;48.490;9.688;2022-09-29T01:21:56;10.00;64.70
45044;DHT22;30784;48.490;9.688;2022-09-29T01:24:17;10.00;64.70
45044;DHT22;30784;48.490;9.688;2022-09-29T01:27:10;10.00;64.60
45044;DHT22;30784;48.490;9.688;2022-09-29T01:29:55;10.10;64.60
45044;DHT22;30784;48.490;9.688;2022-09-29T01:32:51;10.10;64.60
45044;DHT22;30784;48.490;9.688;2022-09-29T01:35:40;10.10;64.60
45044;DHT22;30784;48.490;9.688;2022-09-29T01:40:57;10.10;64.80
45044;DHT22;30784;48.490;9.688;2022-09-29T01:43:54;10.10;64.80
45044;DHT22;30784;48.490;9.688;2022-09-29T01:46:25;10.10;64.70
45044;DHT22;30784;48.490;9.688;2022-09-29T01:48:55;10.10;64.90
45044;DHT22;30784;48.490;9.688;2022-09-29T01:51:27;10.10;65.00
45044;DHT22;30784;48.490;9.688;2022-09-29T01:53:56;10.10;64.90
45044;DHT22;30784;48.490;9.688;2022-09-29T01:57:09;10.10;64.90
45044;DHT22;30784;48.490;9.688;2022-09-29T01:59:41;10.10;64.80
45044;DHT22;30784;48.490;9.688;2022-09-29T02:02:12;10.10;64.80
45044;DHT22;30784;48.490;9.688;2022-09-29T02:04:47;10.10;64.90
45044;DHT22;30784;48.490;9.688;2022-09-29T02:07:30;10.10;64.90
45044;DHT22;30784;48.490;9.688;2022-09-29T02:10:06;10.10;64.90
45044;DHT22;30784;48.490;9.688;2022-09-29T02:12:35;10.20;64.90
45044;DHT22;30784;48.490;9.688;2022-09-29T02:15:05;10.20;64.90
45044;DHT22;30784;48.490;9.688;2022-09-29T02:17:35;10.20;64.90
45044;DHT22;30784;48.490;9.688;2022-09-29T02:20:04;10.20;64.90
45044;DHT22;30784;48.490;9.688;2022-09-29T02:22:30;10.20;64.80
45044;DHT22;30784;48.490;9.688;2022-09-29T02:24:58;10.30;64.90
45044;DHT22;30784;48.490;9.688;2022-09-29T02:27:25;10.30;64.90
45044;DHT22;30784;48.490;9.688;2022-09-29T02:29:51;10.30;64.90
45044;DHT22;30784;48.490;9.688;2022-09-29T02:32:18;10.30;64.80
45044;DHT22;30784;48.490;9.688;2022-09-29T02:34:46;10.30;64.90
45044;DHT22;30784;48.490;9.688;2022-09-29T02:40:36;10.30;64.80
45044;DHT22;30784;48.490;9.688;2022-09-29T02:45:32;10.30;64.70
45044;DHT22;30784;48.490;9.688;2022-09-29T02:48:35;10.30;64.80
45044;DHT22;30784;48.490;9.688;2022-09-29T02:53:41;10.40;65.00
45044;DHT22;30784;48.490;9.688;2022-09-29T03:01:54;10.30;64.80
45044;DHT22;30784;48.490;9.688;2022-09-29T03:04:23;10.40;64.80
45044;DHT22;30784;48.490;9.688;2022-09-29T03:06:49;10.40;64.80
45044;DHT22;30784;48.490;9.688;2022-09-29T03:09:15;10.40;64.80
45044;DHT22;30784;48.490;9.688;2022-09-29T03:11:40;10.40;64.80
45044;DHT22;30784;48.490;9.688;2022-09-29T03:14:07;10.40;64.80
45044;DHT22;30784;48.490;9.688;2022-09-29T03:16:33;10.40;64.70
45044;DHT22;30784;48.490;9.688;2022-09-29T03:18:59;10.40;64.70
45044;DHT22;30784;48.490;9.688;2022-09-29T03:21:25;10.40;64.70
45044;DHT22;30784;48.490;9.688;2022-09-29T03:23:51;10.40;64.60
45044;DHT22;30784;48.490;9.688;2022-09-29T03:26:16;10.40;64.50
45044;DHT22;30784;48.490;9.688;2022-09-29T03:28:42;10.40;64.50
45044;DHT22;30784;48.490;9.688;2022-09-29T03:31:09;10.40;64.50
45044;DHT22;30784;48.490;9.688;2022-09-29T03:33:35;10.40;64.50
45044;DHT22;30784;48.490;9.688;2022-09-29T03:36:03;10.40;64.50
45044;DHT22;30784;48.490;9.688;2022-09-29T03:38:30;10.30;64.50
45044;DHT22;30784;48.490;9.688;2022-09-29T03:40:56;10.40;64.50
45044;DHT22;30784;48.490;9.688;2022-09-29T03:43:21;10.40;64.50
45044;DHT22;30784;48.490;9.688;2022-09-29T03:45:52;10.30;64.50
45044;DHT22;30784;48.490;9.688;2022-09-29T03:48:19;10.40;64.60
45044;DHT22;30784;48.490;9.688;2022-09-29T03:50:46;10.40;64.50
45044;DHT22;30784;48.490;9.688;2022-09-29T03:53:13;10.30;64.40
45044;DHT22;30784;48.490;9.688;2022-09-29T03:55:39;10.40;64.50
45044;DHT22;30784;48.490;9.688;2022-09-29T03:58:04;10.40;64.50
45044;DHT22;30784;48.490;9.688;2022-09-29T04:00:30;10.40;64.40
45044;DHT22;30784;48.490;9.688;2022-09-29T04:02:57;10.40;64.50
45044;DHT22;30784;48.490;9.688;2022-09-29T04:05:23;10.40;65.00
45044;DHT22;30784;48.490;9.688;2022-09-29T04:07:48;10.40;64.50
45044;DHT22;30784;48.490;9.688;2022-09-29T04:10:14;10.40;64.50
45044;DHT22;30784;48.490;9.688;2022-09-29T04:12:40;10.40;64.40
45044;DHT22;30784;48.490;9.688;2022-09-29T04:15:06;10.40;64.50
45044;DHT22;30784;48.490;9.688;2022-09-29T04:17:32;10.40;64.50
45044;DHT22;30784;48.490;9.688;2022-09-29T04:19:58;10.40;64.60
45044;DHT22;30784;48.490;9.688;2022-09-29T04:22:24;10.40;64.60
45044;DHT22;30784;48.490;9.688;2022-09-29T04:24:49;10.40;64.50
45044;DHT22;30784;48.490;9.688;2022-09-29T04:27:17;10.40;64.50
45044;DHT22;30784;48.490;9.688;2022-09-29T04:29:42;10.40;64.50
45044;DHT22;30784;48.490;9.688;2022-09-29T04:32:08;10.40;64.50
45044;DHT22;30784;48.490;9.688;2022-09-29T04:34:34;10.50;64.50
45044;DHT22;30784;48.490;9.688;2022-09-29T04:37:00;10.50;64.40
45044;DHT22;30784;48.490;9.688;2022-09-29T04:39:26;10.50;64.40
45044;DHT22;30784;48.490;9.688;2022-09-29T04:41:52;10.50;64.90
45044;DHT22;30784;48.490;9.688;2022-09-29T04:44:17;10.50;64.40
45044;DHT22;30784;48.490;9.688;2022-09-29T04:46:48;10.50;64.40
45044;DHT22;30784;48.490;9.688;2022-09-29T04:49:14;10.50;64.40
45044;DHT22;30784;48.490;9.688;2022-09-29T04:51:39;10.50;64.40
45044;DHT22;30784;48.490;9.688;2022-09-29T04:54:05;10.50;64.40
45044;DHT22;30784;48.490;9.688;2022-09-29T04:56:31;10.50;64.40
45044;DHT22;30784;48.490;9.688;2022-09-29T04:58:57;10.50;64.40
45044;DHT22;30784;48.490;9.688;2022-09-29T05:01:23;10.50;64.40
45044;DHT22;30784;48.490;9.688;2022-09-29T05:03:50;10.60;65.00
45044;DHT22;30784;48.490;9.688;2022-09-29T05:06:16;10.50;64.40
45044;DHT22;30784;48.490;9.688;2022-09-29T05:08:42;10.60;64.50
45044;DHT22;30784;48.490;9.688;2022-09-29T05:11:09;10.50;64.40
45044;DHT22;30784;48.490;9.688;2022-09-29T05:13:35;10.50;64.50
45044;DHT22;30784;48.490;9.688;2022-09-29T05:16:02;10.50;64.60
45044;DHT22;30784;48.490;9.688;2022-09-29T05:18:28;10.40;64.60
45044;DHT22;30784;48.490;9.688;2022-09-29T05:20:54;10.40;64.70
45044;DHT22;30784;48.490;9.688;2022-09-29T05:23:19;10.40;64.80
45044;DHT22;30784;48.490;9.688;2022-09-29T05:25:45;10.40;64.80
45044;DHT22;30784;48.490;9.688;2022-09-29T05:28:12;10.30;64.90
45044;DHT22;30784;48.490;9.688;2022-09-29T05:30:40;10.40;65.00
45044;DHT22;30784;48.490;9.688;2022-09-29T05:33:05;10.30;65.00
45044;DHT22;30784;48.490;9.688;2022-09-29T05:35:31;10.30;65.00
45044;DHT22;30784;48.490;9.688;2022-09-29T05:37:57;10.30;65.10
45044;DHT22;30784;48.490;9.688;2022-09-29T05:40:22;10.30;65.10
45044;DHT22;30784;48.490;9.688;2022-09-29T05:42:49;10.30;65.20
45044;DHT22;30784;48.490;9.688;2022-09-29T05:45:15;10.20;65.10
45044;DHT22;30784;48.490;9.688;2022-09-29T05:47:42;10.30;65.20
45044;DHT22;30784;48.490;9.688;2022-09-29T05:50:08;10.30;65.40
45044;DHT22;30784;48.490;9.688;2022-09-29T05:52:34;10.30;65.40
45044;DHT22;30784;48.490;9.688;2022-09-29T05:55:00;10.30;65.40
45044;DHT22;30784;48.490;9.688;2022-09-29T05:57:26;10.30;65.50
45044;DHT22;30784;48.490;9.688;2022-09-29T05:59:51;10.30;65.50
45044;DHT22;30784;48.490;9.688;2022-09-29T06:02:17;10.30;65.50
45044;DHT22;30784;48.490;9.688;2022-09-29T06:04:43;10.30;65.50
45044;DHT22;30784;48.490;9.688;2022-09-29T06:07:08;10.30;65.60
45044;DHT22;30784;48.490;9.688;2022-09-29T06:09:34;10.30;65.60
45044;DHT22;30784;48.490;9.688;2022-09-29T06:12:01;10.30;65.70
45044;DHT22;30784;48.490;9.688;2022-09-29T06:14:27;10.30;65.70
45044;DHT22;30784;48.490;9.688;2022-09-29T06:16:52;10.30;65.70
45044;DHT22;30784;48.490;9.688;2022-09-29T06:19:18;10.30;65.70
45044;DHT22;30784;48.490;9.688;2022-09-29T06:21:44;10.40;65.80
45044;DHT22;30784;48.490;9.688;2022-09-29T06:24:10;10.40;65.70
45044;DHT22;30784;48.490;9.688;2022-09-29T06:26:35;10.40;65.80
45044;DHT22;30784;48.490;9.688;2022-09-29T06:29:01;10.40;65.80
45044;DHT22;30784;48.490;9.688;2022-09-29T06:31:28;10.40;65.70
45044;DHT22;30784;48.490;9.688;2022-09-29T06:33:59;10.50;65.70
45044;DHT22;30784;48.490;9.688;2022-09-29T06:36:29;10.50;65.70
45044;DHT22;30784;48.490;9.688;2022-09-29T06:39:14;10.50;65.60
45044;DHT22;30784;48.490;9.688;2022-09-29T06:41:41;10.60;65.60
45044;DHT22;30784;48.490;9.688;2022-09-29T06:44:08;10.60;65.60
45044;DHT22;30784;48.490;9.688;2022-09-29T06:46:34;10.60;65.70
45044;DHT22;30784;48.490;9.688;2022-09-29T06:49:00;10.70;65.60
45044;DHT22;30784;48.490;9.688;2022-09-29T06:51:26;10.70;65.60
45044;DHT22;30784;48.490;9.688;2022-09-29T06:53:52;10.70;65.60
45044;DHT22;30784;48.490;9.688;2022-09-29T06:56:18;10.70;65.60
45044;DHT22;30784;48.490;9.688;2022-09-29T06:58:44;10.80;65.70
45044;DHT22;30784;48.490;9.688;2022-09-29T07:01:10;10.80;65.70
45044;DHT22;30784;48.490;9.688;2022-09-29T07:03:37;10.80;65.70
45044;DHT22;30784;48.490;9.688;2022-09-29T07:06:08;10.90;65.60
45044;DHT22;30784;48.490;9.688;2022-09-29T07:08:34;10.90;65.60
45044;DHT22;30784;48.490;9.688;2022-09-29T07:11:02;11.00;65.60
45044;DHT22;30784;48.490;9.688;2022-09-29T07:13:29;11.00;65.60
45044;DHT22;30784;48.490;9.688;2022-09-29T07:15:55;11.00;65.50
45044;DHT22;30784;48.490;9.688;2022-09-29T07:18:21;11.10;65.60
45044;DHT22;30784;48.490;9.688;2022-09-29T07:20:47;11.10;65.50
45044;DHT22;30784;48.490;9.688;2022-09-29T07:23:12;11.10;65.50
45044;DHT22;30784;48.490;9.688;2022-09-29T07:25:38;11.20;65.40
45044;DHT22;30784;48.490;9.688;2022-09-29T07:28:04;11.20;65.30
45044;DHT22;30784;48.490;9.688;2022-09-29T07:30:29;11.20;65.00
45044;DHT22;30784;48.490;9.688;2022-09-29T07:32:56;11.30;65.00
45044;DHT22;30784;48.490;9.688;2022-09-29T07:35:22;11.30;65.10
45044;DHT22;30784;48.490;9.688;2022-09-29T07:37:55;11.30;65.00
45044;DHT22;30784;48.490;9.688;2022-09-29T07:40:22;11.30;65.00
45044;DHT22;30784;48.490;9.688;2022-09-29T07:42:48;11.30;65.00
45044;DHT22;30784;48.490;9.688;2022-09-29T07:45:18;11.30;64.90
45044;DHT22;30784;48.490;9.688;2022-09-29T07:47:44;11.30;64.90
45044;DHT22;30784;48.490;9.688;2022-09-29T07:50:10;11.30;64.80
45044;DHT22;30784;48.490;9.688;2022-09-29T07:52:35;11.30;64.80
45044;DHT22;30784;48.490;9.688;2022-09-29T07:55:02;11.30;64.90
45044;DHT22;30784;48.490;9.688;2022-09-29T07:57:28;11.30;65.10
45044;DHT22;30784;48.490;9.688;2022-09-29T07:59:54;11.30;65.00
45044;DHT22;30784;48.490;9.688;2022-09-29T08:02:22;11.40;65.20
45044;DHT22;30784;48.490;9.688;2022-09-29T08:04:48;11.40;65.20
45044;DHT22;30784;48.490;9.688;2022-09-29T08:07:13;11.40;65.30
45044;DHT22;30784;48.490;9.688;2022-09-29T08:09:39;11.50;65.30
45044;DHT22;30784;48.490;9.688;2022-09-29T08:12:05;11.50;65.50
45044;DHT22;30784;48.490;9.688;2022-09-29T08:14:30;11.50;65.50
45044;DHT22;30784;48.490;9.688;2022-09-29T08:16:56;11.60;65.00
45044;DHT22;30784;48.490;9.688;2022-09-29T08:19:22;11.60;65.10
45044;DHT22;30784;48.490;9.688;2022-09-29T08:21:47;11.70;64.90
45044;DHT22;30784;48.490;9.688;2022-09-29T08:24:14;11.70;65.00
45044;DHT22;30784;48.490;9.688;2022-09-29T08:26:40;11.80;65.10
45044;DHT22;30784;48.490;9.688;2022-09-29T08:29:06;11.90;65.00
45044;DHT22;30784;48.490;9.688;2022-09-29T08:31:31;12.00;65.00
45044;DHT22;30784;48.490;9.688;2022-09-29T08:33:58;12.00;64.20
45044;DHT22;30784;48.490;9.688;2022-09-29T08:36:24;12.00;64.00
45044;DHT22;30784;48.490;9.688;2022-09-29T08:38:52;12.10;64.70
45044;DHT22;30784;48.490;9.688;2022-09-29T08:43:57;12.20;63.80
45044;DHT22;30784;48.490;9.688;2022-09-29T08:46:32;12.20;63.80
45044;DHT22;30784;48.490;9.688;2022-09-29T08:49:03;12.30;63.70
45044;DHT22;30784;48.490;9.688;2022-09-29T08:51:45;12.30;63.20
45044;DHT22;30784;48.490;9.688;2022-09-29T08:54:32;12.30;63.40
45044;DHT22;30784;48.490;9.688;2022-09-29T08:56:59;12.40;63.60
45044;DHT22;30784;48.490;9.688;2022-09-29T08:59:27;12.50;63.40
45044;DHT22;30784;48.490;9.688;2022-09-29T09:01:58;12.50;62.90
45044;DHT22;30784;48.490;9.688;2022-09-29T09:04:38;12.60;62.80
45044;DHT22;30784;48.490;9.688;2022-09-29T09:12:59;12.70;62.60
45044;DHT22;30784;48.490;9.688;2022-09-29T09:15:51;12.80;62.00
45044;DHT22;30784;48.490;9.688;2022-09-29T09:21:40;12.90;62.20
45044;DHT22;30784;48.490;9.688;2022-09-29T09:24:40;12.90;62.10
45044;DHT22;30784;48.490;9.688;2022-09-29T09:27:02;13.00;61.00
45044;DHT22;30784;48.490;9.688;2022-09-29T09:29:36;13.10;60.40
45044;DHT22;30784;48.490;9.688;2022-09-29T09:32:06;13.10;60.20
45044;DHT22;30784;48.490;9.688;2022-09-29T09:37:06;13.30;61.10
45044;DHT22;30784;48.490;9.688;2022-09-29T09:39:36;13.40;60.10
45044;DHT22;30784;48.490;9.688;2022-09-29T09:42:17;13.40;59.90
45044;DHT22;30784;48.490;9.688;2022-09-29T09:44:48;13.50;59.80
45044;DHT22;30784;48.490;9.688;2022-09-29T09:47:31;13.50;58.90
45044;DHT22;30784;48.490;9.688;2022-09-29T09:50:15;13.50;59.00
45044;DHT22;30784;48.490;9.688;2022-09-29T09:52:52;13.60;59.40
45044;DHT22;30784;48.490;9.688;2022-09-29T09:55:22;13.60;58.60
45044;DHT22;30784;48.490;9.688;2022-09-29T10:03:20;13.60;57.30
45044;DHT22;30784;48.490;9.688;2022-09-29T10:05:47;13.60;57.70
45044;DHT22;30784;48.490;9.688;2022-09-29T10:10:48;13.50;57.70
45044;DHT22;30784;48.490;9.688;2022-09-29T10:13:15;13.50;57.80
45044;DHT22;30784;48.490;9.688;2022-09-29T10:16:00;13.50;57.20
45044;DHT22;30784;48.490;9.688;2022-09-29T10:18:46;13.50;57.70
45044;DHT22;30784;48.490;9.688;2022-09-29T10:23:58;13.60;58.30
45044;DHT22;30784;48.490;9.688;2022-09-29T10:26:41;13.60;57.80
45044;DHT22;30784;48.490;9.688;2022-09-29T10:29:37;13.70;57.80
45044;DHT22;30784;48.490;9.688;2022-09-29T10:32:15;13.80;58.30
45044;DHT22;30784;48.490;9.688;2022-09-29T10:34:44;13.80;57.50
45044;DHT22;30784;48.490;9.688;2022-09-29T10:37:21;13.90;56.50
45044;DHT22;30784;48.490;9.688;2022-09-29T10:39:50;13.90;56.80
45044;DHT22;30784;48.490;9.688;2022-09-29T10:42:37;13.90;56.10
45044;DHT22;30784;48.490;9.688;2022-09-29T10:47:32;13.90;56.80
45044;DHT22;30784;48.490;9.688;2022-09-29T10:53:04;13.90;57.00
45044;DHT22;30784;48.490;9.688;2022-09-29T10:55:35;13.90;57.00
45044;DHT22;30784;48.490;9.688;2022-09-29T11:00:44;13.90;56.40
45044;DHT22;30784;48.490;9.688;2022-09-29T11:03:22;13.90;56.60
45044;DHT22;30784;48.490;9.688;2022-09-29T11:08:29;13.80;56.50
45044;DHT22;30784;48.490;9.688;2022-09-29T11:11:20;13.80;56.10
45044;DHT22;30784;48.490;9.688;2022-09-29T11:13:47;13.80;56.80
45044;DHT22;30784;48.490;9.688;2022-09-29T11:16:17;13.90;56.80
45044;DHT22;30784;48.490;9.688;2022-09-29T11:18:49;13.90;56.80
45044;DHT22;30784;48.490;9.688;2022-09-29T11:24:05;13.90;56.30
45044;DHT22;30784;48.490;9.688;2022-09-29T11:26:42;13.90;56.20
45044;DHT22;30784;48.490;9.688;2022-09-29T11:29:25;14.00;56.00
45044;DHT22;30784;48.490;9.688;2022-09-29T11:41:01;14.20;56.20
45044;DHT22;30784;48.490;9.688;2022-09-29T11:54:44;14.50;55.80
45044;DHT22;30784;48.490;9.688;2022-09-29T11:57:31;14.50;55.40
45044;DHT22;30784;48.490;9.688;2022-09-29T12:00:14;14.60;54.80
45044;DHT22;30784;48.490;9.688;2022-09-29T12:09:02;14.90;55.10
45044;DHT22;30784;48.490;9.688;2022-09-29T12:11:59;14.90;53.90
45044;DHT22;30784;48.490;9.688;2022-09-29T12:14:58;14.90;53.80
45044;DHT22;30784;48.490;9.688;2022-09-29T12:17:30;15.00;53.60
45044;DHT22;30784;48.490;9.688;2022-09-29T12:20:15;15.00;53.70
45044;DHT22;30784;48.490;9.688;2022-09-29T12:22:45;15.00;53.20
45044;DHT22;30784;48.490;9.688;2022-09-29T12:25:17;15.10;53.60
45044;DHT22;30784;48.490;9.688;2022-09-29T12:27:45;15.10;53.30
45044;DHT22;30784;48.490;9.688;2022-09-29T12:30:28;15.10;52.90
45044;DHT22;30784;48.490;9.688;2022-09-29T12:38:33;15.10;53.10
45044;DHT22;30784;48.490;9.688;2022-09-29T12:41:13;15.00;53.00
45044;DHT22;30784;48.490;9.688;2022-09-29T12:43:50;15.00;52.60
45044;DHT22;30784;48.490;9.688;2022-09-29T12:46:44;15.00;52.70
45044;DHT22;30784;48.490;9.688;2022-09-29T12:49:20;14.90;53.00
45044;DHT22;30784;48.490;9.688;2022-09-29T12:51:50;14.90;52.50
45044;DHT22;30784;48.490;9.688;2022-09-29T12:54:27;14.90;52.70
45044;DHT22;30784;48.490;9.688;2022-09-29T12:57:04;14.90;52.70
45044;DHT22;30784;48.490;9.688;2022-09-29T12:59:38;14.90;52.50
45044;DHT22;30784;48.490;9.688;2022-09-29T13:13:17;14.80;54.20
45044;DHT22;30784;48.490;9.688;2022-09-29T13:16:16;14.80;54.30
45044;DHT22;30784;48.490;9.688;2022-09-29T13:29:22;14.70;54.80
45044;DHT22;30784;48.490;9.688;2022-09-29T13:31:50;14.70;55.00
45044;DHT22;30784;48.490;9.688;2022-09-29T13:37:13;14.70;55.10
45044;DHT22;30784;48.490;9.688;2022-09-29T13:39:51;14.70;55.10
45044;DHT22;30784;48.490;9.688;2022-09-29T13:42:40;14.70;55.30
45044;DHT22;30784;48.490;9.688;2022-09-29T13:45:13;14.60;55.10
45044;DHT22;30784;48.490;9.688;2022-09-29T13:47:50;14.70;55.30
45044;DHT22;30784;48.490;9.688;2022-09-29T13:50:47;14.60;55.30
45044;DHT22;30784;48.490;9.688;2022-09-29T14:01:35;14.70;55.40
45044;DHT22;30784;48.490;9.688;2022-09-29T14:06:55;14.70;55.60
45044;DHT22;30784;48.490;9.688;2022-09-29T14:09:23;14.70;55.80
45044;DHT22;30784;48.490;9.688;2022-09-29T14:11:54;14.70;55.70
45044;DHT22;30784;48.490;9.688;2022-09-29T14:14:33;14.70;55.30
45044;DHT22;30784;48.490;9.688;2022-09-29T14:17:19;14.70;55.30
45044;DHT22;30784;48.490;9.688;2022-09-29T14:19:55;14.80;55.50
45044;DHT22;30784;48.490;9.688;2022-09-29T14:30:11;14.80;55.10
45044;DHT22;30784;48.490;9.688;2022-09-29T14:32:41;14.80;55.10
45044;DHT22;30784;48.490;9.688;2022-09-29T14:35:39;14.80;55.40
45044;DHT22;30784;48.490;9.688;2022-09-29T14:38:25;14.90;55.10
45044;DHT22;30784;48.490;9.688;2022-09-29T14:43:19;14.90;54.80
45044;DHT22;30784;48.490;9.688;2022-09-29T14:51:39;15.00;54.50
45044;DHT22;30784;48.490;9.688;2022-09-29T14:54:35;15.00;53.80
45044;DHT22;30784;48.490;9.688;2022-09-29T14:57:32;14.90;53.80
45044;DHT22;30784;48.490;9.688;2022-09-29T15:02:29;14.90;53.70
45044;DHT22;30784;48.490;9.688;2022-09-29T15:04:57;14.90;53.70
45044;DHT22;30784;48.490;9.688;2022-09-29T15:07:26;14.80;53.50
45044;DHT22;30784;48.490;9.688;2022-09-29T15:09:57;14.80;53.60
45044;DHT22;30784;48.490;9.688;2022-09-29T15:14:51;14.80;53.70
45044;DHT22;30784;48.490;9.688;2022-09-29T15:25:40;14.80;53.90
45044;DHT22;30784;48.490;9.688;2022-09-29T15:28:18;14.70;53.80
45044;DHT22;30784;48.490;9.688;2022-09-29T15:30:49;14.70;54.00
45044;DHT22;30784;48.490;9.688;2022-09-29T15:33:29;14.70;53.90
45044;DHT22;30784;48.490;9.688;2022-09-29T15:36:04;14.70;54.00
45044;DHT22;30784;48.490;9.688;2022-09-29T15:38:36;14.60;53.90
45044;DHT22;30784;48.490;9.688;2022-09-29T15:41:15;14.60;53.90
45044;DHT22;30784;48.490;9.688;2022-09-29T15:54:28;14.60;53.90
45044;DHT22;30784;48.490;9.688;2022-09-29T15:56:57;14.60;54.00
45044;DHT22;30784;48.490;9.688;2022-09-29T15:59:50;14.50;53.90
45044;DHT22;30784;48.490;9.688;2022-09-29T16:02:24;14.50;53.90
45044;DHT22;30784;48.490;9.688;2022-09-29T16:05:05;14.50;53.90
45044;DHT22;30784;48.490;9.688;2022-09-29T16:07:37;14.50;54.00
45044;DHT22;30784;48.490;9.688;2022-09-29T16:10:17;14.50;54.00
45044;DHT22;30784;48.490;9.688;2022-09-29T16:12:56;14.50;54.10
45044;DHT22;30784;48.490;9.688;2022-09-29T16:15:30;14.50;54.10
45044;DHT22;30784;48.490;9.688;2022-09-29T16:18:01;14.40;54.10
45044;DHT22;30784;48.490;9.688;2022-09-29T16:20:32;14.40;54.10
45044;DHT22;30784;48.490;9.688;2022-09-29T16:23:06;14.40;54.20
45044;DHT22;30784;48.490;9.688;2022-09-29T16:25:32;14.40;54.20
45044;DHT22;30784;48.490;9.688;2022-09-29T16:28:00;14.40;54.20
45044;DHT22;30784;48.490;9.688;2022-09-29T16:30:35;14.40;54.30
45044;DHT22;30784;48.490;9.688;2022-09-29T16:33:11;14.30;54.30
45044;DHT22;30784;48.490;9.688;2022-09-29T16:40:53;14.30;54.40
45044;DHT22;30784;48.490;9.688;2022-09-29T16:45:54;14.30;54.40
45044;DHT22;30784;48.490;9.688;2022-09-29T16:48:22;14.30;54.40
45044;DHT22;30784;48.490;9.688;2022-09-29T16:50:53;14.30;54.50
45044;DHT22;30784;48.490;9.688;2022-09-29T16:53:32;14.20;54.80
45044;DHT22;30784;48.490;9.688;2022-09-29T16:56:07;14.20;54.90
45044;DHT22;30784;48.490;9.688;2022-09-29T16:58:34;14.10;55.10
45044;DHT22;30784;48.490;9.688;2022-09-29T17:01:01;14.10;55.20
45044;DHT22;30784;48.490;9.688;2022-09-29T17:03:27;14.10;55.30
45044;DHT22;30784;48.490;9.688;2022-09-29T17:05:56;14.10;55.60
45044;DHT22;30784;48.490;9.688;2022-09-29T17:08:27;14.10;55.70
45044;DHT22;30784;48.490;9.688;2022-09-29T17:10:55;14.00;55.80
45044;DHT22;30784;48.490;9.688;2022-09-29T17:13:22;14.00;56.10
45044;DHT22;30784;48.490;9.688;2022-09-29T17:15:50;13.90;56.40
45044;DHT22;30784;48.490;9.688;2022-09-29T17:18:17;13.90;56.60
45044;DHT22;30784;48.490;9.688;2022-09-29T17:20:44;13.80;56.50
45044;DHT22;30784;48.490;9.688;2022-09-29T17:23:10;13.70;56.70
45044;DHT22;30784;48.490;9.688;2022-09-29T17:25:38;13.70;56.70
45044;DHT22;30784;48.490;9.688;2022-09-29T17:28:26;13.60;56.90
45044;DHT22;30784;48.490;9.688;2022-09-29T17:30:52;13.60;57.10
45044;DHT22;30784;48.490;9.688;2022-09-29T17:33:19;13.50;57.40
45044;DHT22;30784;48.490;9.688;2022-09-29T17:35:47;13.50;57.50
45044;DHT22;30784;48.490;9.688;2022-09-29T17:38:15;13.40;57.70
45044;DHT22;30784;48.490;9.688;2022-09-29T17:41:01;13.40;58.10
45044;DHT22;30784;48.490;9.688;2022-09-29T17:43:28;13.30;57.80
45044;DHT22;30784;48.490;9.688;2022-09-29T17:45:56;13.20;58.40
45044;DHT22;30784;48.490;9.688;2022-09-29T17:48:26;13.20;58.60
45044;DHT22;30784;48.490;9.688;2022-09-29T17:50:53;13.10;58.70
45044;DHT22;30784;48.490;9.688;2022-09-29T17:53:21;13.00;58.90
45044;DHT22;30784;48.490;9.688;2022-09-29T17:55:50;13.00;59.10
45044;DHT22;30784;48.490;9.688;2022-09-29T17:58:17;13.00;58.90
45044;DHT22;30784;48.490;9.688;2022-09-29T18:00:48;13.00;59.00
45044;DHT22;30784;48.490;9.688;2022-09-29T18:03:16;12.90;59.40
45044;DHT22;30784;48.490;9.688;2022-09-29T18:05:46;12.90;59.50
45044;DHT22;30784;48.490;9.688;2022-09-29T18:08:15;12.90;59.80
45044;DHT22;30784;48.490;9.688;2022-09-29T18:10:44;12.80;59.70
45044;DHT22;30784;48.490;9.688;2022-09-29T18:13:11;12.80;59.60
45044;DHT22;30784;48.490;9.688;2022-09-29T18:15:37;12.80;59.70
45044;DHT22;30784;48.490;9.688;2022-09-29T18:18:04;12.80;59.70
45044;DHT22;30784;48.490;9.688;2022-09-29T18:20:33;12.80;59.80
45044;DHT22;30784;48.490;9.688;2022-09-29T18:23:00;12.80;60.30
45044;DHT22;30784;48.490;9.688;2022-09-29T18:25:31;12.80;59.80
45044;DHT22;30784;48.490;9.688;2022-09-29T18:27:57;12.80;59.70
45044;DHT22;30784;48.490;9.688;2022-09-29T18:30:28;12.80;59.70
45044;DHT22;30784;48.490;9.688;2022-09-29T18:32:55;12.90;59.80
45044;DHT22;30784;48.490;9.688;2022-09-29T18:35:30;12.90;59.80
45044;DHT22;30784;48.490;9.688;2022-09-29T18:37:57;12.90;59.70
45044;DHT22;30784;48.490;9.688;2022-09-29T18:40:24;12.90;59.70
45044;DHT22;30784;48.490;9.688;2022-09-29T18:42:51;12.90;59.60
45044;DHT22;30784;48.490;9.688;2022-09-29T18:45:19;12.90;59.70
45044;DHT22;30784;48.490;9.688;2022-09-29T18:47:48;12.90;59.50
45044;DHT22;30784;48.490;9.688;2022-09-29T18:50:17;12.90;59.50
45044;DHT22;30784;48.490;9.688;2022-09-29T18:52:48;12.90;59.50